Terminal Aerodrome Forecast
Issued by NWS

Home | Current Version | Previous Version | Text Only | Print | Product List | Glossary On
Versions: 1 2 3 4 5 6 7 8 9 10 11 12 13 14 15 16 17
000
FTUS41 KGYX 240100 AAA
TAFPSM
TAF AMD
KPSM 240159Z 2402/2424 29008KT 5SM -TSRA BR SCT025 BKN050CB BKN080
     FM240300 29005KT P6SM SCT040 BKN100
     FM240800 32005KT 4SM BR SCT020 BKN100
     FM241200 36010KT P6SM SCT045 SCT120
     FM242100 15006KT P6SM FEW050=

USA.gov is the U.S. government's official web portal to all federal, state and local government web resources and services.